Time;durP1;ratioP1;P1;durP2;ratioP2;P2;SDS_P1;SDS_P2;PMS_P1;PMS_P2;Temp;Humidity;BMP_temperature;BMP_pressure;BME280_temperature;BME280_humidity;BME280_pressure;Samples;Min_cycle;Max_cycle;Signal;HPM_P1;HPM_P2
2023/03/11 00:00:18;;;;;;;2.55;1.80;;;3.00;64.40;;;;;;5055215;28;20032;-75
2023/03/11 00:02:45;;;;;;;2.47;2.13;;;3.00;64.40;;;;;;5055223;28;20036;-74
2023/03/11 00:05:25;;;;;;;2.33;1.85;;;3.00;64.80;;;;;;5055060;28;20053;-75
2023/03/11 00:07:52;;;;;;;2.10;1.90;;;2.90;64.70;;;;;;5055095;28;20064;-75
2023/03/11 00:10:24;;;;;;;2.15;1.83;;;2.90;64.60;;;;;;5054669;28;20029;-72
2023/03/11 00:12:50;;;;;;;2.30;1.85;;;3.00;64.90;;;;;;5054953;28;20033;-74
2023/03/11 00:15:16;;;;;;;2.05;1.63;;;2.90;64.80;;;;;;5054898;28;20066;-74
2023/03/11 00:17:42;;;;;;;2.55;1.92;;;2.90;65.20;;;;;;5054962;28;20020;-75
2023/03/11 00:20:14;;;;;;;4.05;1.95;;;2.90;65.20;;;;;;5054982;28;20488;-76
2023/03/11 00:22:39;;;;;;;3.28;1.92;;;3.00;65.10;;;;;;5054998;28;20158;-75
2023/03/11 00:25:05;;;;;;;2.13;1.95;;;2.90;65.40;;;;;;5054694;28;20059;-74
2023/03/11 00:27:31;;;;;;;3.42;1.90;;;2.90;65.20;;;;;;5054749;28;20083;-75
2023/03/11 00:29:56;;;;;;;2.80;2.22;;;2.90;65.30;;;;;;5054710;28;20025;-76
2023/03/11 00:32:22;;;;;;;2.10;1.85;;;2.90;65.60;;;;;;5054645;28;20117;-73
2023/03/11 00:34:47;;;;;;;3.40;2.25;;;2.90;65.70;;;;;;5054538;28;20029;-73
2023/03/11 00:37:13;;;;;;;3.13;2.55;;;2.90;66.20;;;;;;5054540;28;20104;-73
2023/03/11 00:39:38;;;;;;;2.47;2.20;;;2.90;66.10;;;;;;5036657;28;20063;-74
2023/03/11 00:42:04;;;;;;;3.20;2.15;;;2.90;66.10;;;;;;5054256;28;20029;-76
2023/03/11 00:44:29;;;;;;;4.38;2.10;;;2.90;65.30;;;;;;5054635;28;20466;-76
2023/03/11 00:46:55;;;;;;;2.95;2.22;;;2.90;65.40;;;;;;5054503;28;20029;-77
2023/03/11 00:49:20;;;;;;;2.80;1.90;;;2.80;65.90;;;;;;5054212;28;20033;-75
2023/03/11 00:51:46;;;;;;;2.30;2.10;;;2.80;65.70;;;;;;5054106;28;20494;-77
2023/03/11 00:54:12;;;;;;;2.80;1.98;;;2.90;65.30;;;;;;5054198;28;20596;-73
2023/03/11 00:56:37;;;;;;;2.45;1.70;;;2.80;65.50;;;;;;5036429;28;20028;-79
2023/03/11 00:59:03;;;;;;;2.67;1.95;;;2.80;65.80;;;;;;5054251;28;20017;-74
2023/03/11 01:01:28;;;;;;;2.80;2.08;;;2.80;64.90;;;;;;5054116;28;20032;-73
2023/03/11 01:03:54;;;;;;;2.15;1.83;;;2.70;65.00;;;;;;5053558;28;20124;-74
2023/03/11 01:06:20;;;;;;;2.42;1.98;;;2.70;65.60;;;;;;5053305;28;20049;-74
2023/03/11 01:08:46;;;;;;;2.15;1.73;;;2.70;65.70;;;;;;5053971;28;20391;-74
2023/03/11 01:11:11;;;;;;;2.38;1.80;;;2.70;65.40;;;;;;5053924;28;20037;-73
2023/03/11 01:13:39;;;;;;;3.00;1.83;;;2.60;64.90;;;;;;5053996;28;20470;-74
2023/03/11 01:16:06;;;;;;;2.38;2.00;;;2.60;65.00;;;;;;5053839;28;20103;-76
2023/03/11 01:18:32;;;;;;;2.22;2.00;;;2.60;65.70;;;;;;5053819;28;20047;-74
2023/03/11 01:20:58;;;;;;;2.35;1.90;;;2.60;65.90;;;;;;5053850;28;20084;-74
2023/03/11 01:23:24;;;;;;;2.58;1.75;;;2.50;65.30;;;;;;5053789;28;20112;-73
2023/03/11 01:25:49;;;;;;;2.28;1.77;;;2.50;65.60;;;;;;5035835;28;20518;-75
2023/03/11 01:28:15;;;;;;;2.28;1.75;;;2.50;65.80;;;;;;5053553;28;20021;-75
2023/03/11 01:30:41;;;;;;;1.95;1.75;;;2.50;65.80;;;;;;5053520;28;20078;-74
2023/03/11 01:33:12;;;;;;;3.92;1.80;;;2.50;65.60;;;;;;5053358;28;20036;-77
2023/03/11 01:35:38;;;;;;;3.95;1.90;;;2.50;65.50;;;;;;5053469;28;20021;-77
2023/03/11 01:38:04;;;;;;;3.05;1.77;;;2.40;65.80;;;;;;5035187;28;20544;-74
2023/03/11 01:40:34;;;;;;;1.80;1.40;;;2.40;66.10;;;;;;5053236;28;20096;-74
2023/03/11 01:43:00;;;;;;;2.13;1.70;;;2.50;66.20;;;;;;5053362;28;20036;-74
2023/03/11 01:45:40;;;;;;;2.85;1.90;;;2.40;65.90;;;;;;5053283;28;20064;-75
2023/03/11 01:48:07;;;;;;;2.45;1.60;;;2.50;66.10;;;;;;5053332;28;20024;-74
2023/03/11 01:50:37;;;;;;;3.58;1.83;;;2.40;66.20;;;;;;5053141;28;20024;-74
2023/03/11 01:53:04;;;;;;;2.58;1.50;;;2.40;66.20;;;;;;5053157;28;20048;-74
2023/03/11 01:55:31;;;;;;;2.03;1.60;;;2.40;65.10;;;;;;5053082;28;20021;-74
2023/03/11 01:58:01;;;;;;;3.28;1.73;;;2.40;64.60;;;;;;5035622;28;20451;-74
2023/03/11 02:00:26;;;;;;;2.25;1.48;;;2.40;64.90;;;;;;5053158;28;20025;-73
2023/03/11 02:02:56;;;;;;;2.60;1.60;;;2.20;64.90;;;;;;5053192;28;20021;-73
2023/03/11 02:05:23;;;;;;;2.67;1.50;;;2.20;65.40;;;;;;5052857;28;20046;-73
2023/03/11 02:07:51;;;;;;;2.28;1.13;;;2.20;65.30;;;;;;5053029;28;20045;-74
2023/03/11 02:10:17;;;;;;;2.75;1.50;;;2.20;64.90;;;;;;5052995;28;20413;-74
2023/03/11 02:12:44;;;;;;;3.17;1.27;;;2.30;65.20;;;;;;5053058;28;20111;-73
2023/03/11 02:15:11;;;;;;;1.98;1.33;;;2.20;64.90;;;;;;5035128;28;20100;-74
2023/03/11 02:17:39;;;;;;;2.55;0.98;;;2.20;64.90;;;;;;5052871;28;20028;-75
2023/03/11 02:20:19;;;;;;;1.45;1.17;;;2.20;65.20;;;;;;5052706;28;20029;-75
2023/03/11 02:22:46;;;;;;;1.73;1.30;;;2.20;65.30;;;;;;5053125;28;20025;-74
2023/03/11 02:25:30;;;;;;;5.28;1.48;;;2.30;65.10;;;;;;5052901;28;20104;-74
2023/03/11 02:27:58;;;;;;;4.43;1.35;;;2.30;65.00;;;;;;5052844;28;20032;-74
2023/03/11 02:30:26;;;;;;;1.42;1.10;;;2.30;64.70;;;;;;5052732;28;20017;-74
2023/03/11 02:32:53;;;;;;;2.90;1.35;;;2.40;64.50;;;;;;5052809;28;20033;-74
2023/03/11 02:35:19;;;;;;;5.32;1.38;;;2.40;64.20;;;;;;5052867;28;20017;-74
2023/03/11 02:37:51;;;;;;;2.40;1.20;;;2.30;63.40;;;;;;5052750;28;20104;-78
2023/03/11 02:40:22;;;;;;;3.78;1.15;;;2.30;63.50;;;;;;5052686;28;20029;-75
2023/03/11 02:42:58;;;;;;;2.72;1.50;;;2.30;64.10;;;;;;5034712;28;20477;-75
2023/03/11 02:45:25;;;;;;;4.75;1.35;;;2.20;63.00;;;;;;5052756;28;20497;-73
2023/03/11 02:47:55;;;;;;;3.70;1.45;;;2.20;63.20;;;;;;5052294;28;20039;-76
2023/03/11 02:50:21;;;;;;;1.58;1.27;;;2.20;62.80;;;;;;5052544;28;20064;-78
2023/03/11 02:52:48;;;;;;;3.13;1.40;;;2.20;63.00;;;;;;5052468;28;20037;-75
2023/03/11 02:55:16;;;;;;;2.38;1.30;;;2.20;63.40;;;;;;5052264;28;20043;-73
2023/03/11 02:57:43;;;;;;;3.75;1.60;;;2.20;63.60;;;;;;5052508;28;20034;-75
2023/03/11 03:00:12;;;;;;;2.28;1.40;;;2.20;63.70;;;;;;5052549;28;20028;-75
2023/03/11 03:02:37;;;;;;;4.15;1.40;;;2.20;65.00;;;;;;5034563;28;20021;-73
2023/03/11 03:05:03;;;;;;;1.60;1.20;;;2.10;64.10;;;;;;5052315;28;20056;-75
2023/03/11 03:07:29;;;;;;;3.45;1.30;;;2.10;65.00;;;;;;5052499;28;20184;-73
2023/03/11 03:09:54;;;;;;;1.42;0.90;;;2.00;65.00;;;;;;5052346;28;20079;-73
2023/03/11 03:12:20;;;;;;;2.47;1.33;;;2.10;65.40;;;;;;5052403;28;20069;-73
2023/03/11 03:14:45;;;;;;;1.48;1.08;;;2.10;64.10;;;;;;5052294;28;20112;-74
2023/03/11 03:17:11;;;;;;;1.65;1.38;;;2.20;64.20;;;;;;5052304;28;20057;-74
2023/03/11 03:19:36;;;;;;;2.03;1.30;;;2.20;64.20;;;;;;5034413;28;20475;-74
2023/03/11 03:22:02;;;;;;;2.47;1.38;;;2.10;64.00;;;;;;5052275;28;20074;-73
2023/03/11 03:24:27;;;;;;;2.60;1.30;;;2.10;64.20;;;;;;5052217;28;20013;-73
2023/03/11 03:26:53;;;;;;;7.55;1.45;;;2.00;62.80;;;;;;5052262;28;20462;-73
2023/03/11 03:29:18;;;;;;;3.80;1.42;;;1.90;62.70;;;;;;5037423;28;20481;-75
2023/03/11 03:31:44;;;;;;;3.35;1.58;;;1.80;62.90;;;;;;5055725;28;20036;-75
2023/03/11 03:34:10;;;;;;;2.42;1.52;;;1.70;63.10;;;;;;5055665;28;20426;-74
2023/03/11 03:36:35;;;;;;;2.10;1.40;;;1.60;63.00;;;;;;5037784;28;20551;-74
2023/03/11 03:39:01;;;;;;;3.08;1.42;;;1.60;63.70;;;;;;5055591;28;20531;-73
2023/03/11 03:41:27;;;;;;;4.10;1.17;;;1.50;64.50;;;;;;5055514;28;20056;-73
2023/03/11 03:43:53;;;;;;;2.28;1.20;;;1.50;64.10;;;;;;5055517;28;20074;-74
2023/03/11 03:46:20;;;;;;;4.40;1.27;;;1.40;63.60;;;;;;5055504;28;20017;-78
2023/03/11 03:48:46;;;;;;;2.85;1.25;;;1.50;64.00;;;;;;5055463;28;20029;-77
2023/03/11 03:51:13;;;;;;;2.75;1.48;;;1.50;63.20;;;;;;5055462;28;20044;-78
2023/03/11 03:53:39;;;;;;;2.45;1.05;;;1.50;63.10;;;;;;5055302;28;20025;-78
2023/03/11 03:56:07;;;;;;;2.90;1.40;;;1.50;63.40;;;;;;5055304;28;20032;-78
2023/03/11 03:58:33;;;;;;;1.98;1.08;;;1.50;63.50;;;;;;5055152;28;20037;-79
2023/03/11 04:00:59;;;;;;;3.78;1.58;;;1.50;63.40;;;;;;5055282;28;20097;-79
2023/03/11 04:03:26;;;;;;;3.50;1.60;;;1.40;62.80;;;;;;5055340;28;20044;-79
2023/03/11 04:05:52;;;;;;;3.35;1.77;;;1.50;63.10;;;;;;5037149;28;20045;-79
2023/03/11 04:08:18;;;;;;;3.33;1.38;;;1.50;63.00;;;;;;5055233;28;20164;-78
2023/03/11 04:10:44;;;;;;;4.00;1.35;;;1.60;62.30;;;;;;5055028;28;20151;-78
2023/03/11 04:13:10;;;;;;;4.40;1.33;;;1.50;62.50;;;;;;5055070;28;20029;-79
2023/03/11 04:15:39;;;;;;;2.90;1.02;;;1.50;62.90;;;;;;5055095;28;20099;-78
2023/03/11 04:18:04;;;;;;;2.30;1.23;;;1.50;62.80;;;;;;5054951;28;20393;-80
2023/03/11 04:20:30;;;;;;;1.75;1.20;;;1.60;62.70;;;;;;5054557;28;20032;-80
2023/03/11 04:22:55;;;;;;;1.80;1.00;;;1.60;62.80;;;;;;5054715;28;20036;-79
2023/03/11 04:25:21;;;;;;;3.30;1.38;;;1.70;62.70;;;;;;5054749;28;20017;-80
2023/03/11 04:27:48;;;;;;;3.47;1.50;;;1.70;62.70;;;;;;5054637;28;20025;-75
2023/03/11 04:30:14;;;;;;;1.92;1.25;;;1.70;62.60;;;;;;5054646;28;20117;-77
2023/03/11 04:32:40;;;;;;;1.80;1.17;;;1.60;62.90;;;;;;5054641;28;20131;-77
2023/03/11 04:35:06;;;;;;;2.65;1.52;;;1.60;63.20;;;;;;5054595;28;20033;-76
2023/03/11 04:37:32;;;;;;;4.10;1.70;;;1.50;63.40;;;;;;5054643;28;20060;-77
2023/03/11 04:39:58;;;;;;;4.85;1.30;;;1.50;64.10;;;;;;5053421;28;20017;-77
2023/03/11 04:42:23;;;;;;;2.63;1.17;;;1.50;64.30;;;;;;5054513;28;20029;-77
2023/03/11 04:44:49;;;;;;;3.15;1.38;;;1.50;64.40;;;;;;5054471;28;20021;-75
2023/03/11 04:47:14;;;;;;;2.75;1.40;;;1.50;64.20;;;;;;5054531;28;20080;-76
2023/03/11 04:49:40;;;;;;;2.75;1.33;;;1.60;64.20;;;;;;5054303;28;20033;-76
2023/03/11 04:52:05;;;;;;;5.30;1.85;;;1.50;64.10;;;;;;5054292;28;20032;-75
2023/03/11 04:54:31;;;;;;;3.08;1.38;;;1.50;64.40;;;;;;5054248;28;20017;-78
2023/03/11 04:56:56;;;;;;;6.63;1.70;;;1.50;64.80;;;;;;5036371;28;20021;-78
2023/03/11 04:59:22;;;;;;;3.05;1.30;;;1.50;64.40;;;;;;5054228;28;20533;-75
2023/03/11 05:01:47;;;;;;;4.65;1.35;;;1.50;63.80;;;;;;5054163;28;20496;-79
2023/03/11 05:04:13;;;;;;;2.75;1.33;;;1.40;62.80;;;;;;5054125;28;20032;-77
2023/03/11 05:06:39;;;;;;;3.67;1.80;;;1.30;63.10;;;;;;5054155;28;20044;-76
2023/03/11 05:09:04;;;;;;;4.82;2.13;;;1.20;62.90;;;;;;5054113;28;20091;-78
2023/03/11 05:11:30;;;;;;;5.28;2.00;;;1.20;62.90;;;;;;5053875;28;20098;-77
2023/03/11 05:13:56;;;;;;;4.13;2.28;;;1.20;62.70;;;;;;5036015;28;20021;-77
2023/03/11 05:16:21;;;;;;;6.15;2.75;;;1.10;62.70;;;;;;5053979;28;20025;-76
2023/03/11 05:18:47;;;;;;;5.60;2.55;;;1.20;62.80;;;;;;5053844;28;20028;-76
2023/03/11 05:21:13;;;;;;;4.15;2.53;;;1.20;62.20;;;;;;5053851;28;20030;-75
2023/03/11 05:23:39;;;;;;;9.57;4.40;;;1.10;62.30;;;;;;5053870;28;20025;-75
2023/03/11 05:26:04;;;;;;;11.93;5.25;;;1.10;62.50;;;;;;5053734;28;20469;-73
2023/03/11 05:28:30;;;;;;;5.88;2.35;;;1.20;62.40;;;;;;5053720;28;20028;-74
2023/03/11 05:30:56;;;;;;;6.50;2.70;;;1.10;62.30;;;;;;5053593;28;20024;-74
2023/03/11 05:33:21;;;;;;;11.15;4.22;;;1.10;62.20;;;;;;5053447;28;20712;-75
2023/03/11 05:35:47;;;;;;;8.88;3.65;;;1.00;62.40;;;;;;5040649;28;20486;-73
2023/03/11 05:38:13;;;;;;;6.43;2.97;;;1.00;63.00;;;;;;5033360;28;20025;-73
2023/03/11 05:40:38;;;;;;;8.68;4.00;;;1.10;63.30;;;;;;5033416;28;20031;-73
2023/03/11 05:43:04;;;;;;;15.52;6.32;;;1.10;63.40;;;;;;5033410;28;20038;-75
2023/03/11 05:45:29;;;;;;;21.55;9.13;;;1.10;63.20;;;;;;5015796;28;20134;-75
2023/03/11 05:47:55;;;;;;;17.40;8.80;;;1.10;63.30;;;;;;5033316;28;20030;-77
2023/03/11 05:50:20;;;;;;;22.58;11.07;;;1.10;63.20;;;;;;5033247;28;20018;-74
2023/03/11 05:52:46;;;;;;;26.10;9.80;;;1.10;63.40;;;;;;5033183;28;20068;-74
2023/03/11 05:55:11;;;;;;;19.23;8.10;;;1.00;63.50;;;;;;5015577;28;20018;-74
2023/03/11 05:57:38;;;;;;;17.27;7.28;;;1.00;63.70;;;;;;5033218;28;20474;-74
2023/03/11 06:00:10;;;;;;;12.05;5.63;;;1.00;63.60;;;;;;5033298;28;20023;-74
2023/03/11 06:02:36;;;;;;;15.25;6.10;;;1.00;63.50;;;;;;5033267;28;20018;-74
2023/03/11 06:05:02;;;;;;;15.85;6.18;;;0.90;63.40;;;;;;5041650;28;20041;-74
2023/03/11 06:07:27;;;;;;;17.35;6.90;;;0.90;63.20;;;;;;5053059;28;20115;-74
2023/03/11 06:09:53;;;;;;;9.43;3.88;;;0.90;63.30;;;;;;5053088;28;20090;-74
2023/03/11 06:12:18;;;;;;;9.52;3.95;;;0.90;63.90;;;;;;5052977;28;20106;-76
2023/03/11 06:14:44;;;;;;;8.50;3.97;;;1.00;63.20;;;;;;5034922;28;20052;-74
2023/03/11 06:17:09;;;;;;;9.50;4.90;;;1.00;63.10;;;;;;5052925;28;20541;-74
2023/03/11 06:19:35;;;;;;;4.60;2.33;;;1.00;62.60;;;;;;5052922;28;20490;-74
2023/03/11 06:22:01;;;;;;;7.20;1.83;;;1.00;62.30;;;;;;5034878;28;20052;-74
2023/03/11 06:24:27;;;;;;;3.35;2.08;;;1.00;62.30;;;;;;5052743;28;20021;-74
2023/03/11 06:26:52;;;;;;;6.22;1.80;;;1.00;61.90;;;;;;5052783;28;20380;-74
2023/03/11 06:29:18;;;;;;;3.40;1.58;;;1.00;61.90;;;;;;5052860;28;20068;-74
2023/03/11 06:31:44;;;;;;;6.60;1.85;;;1.10;62.50;;;;;;5052590;28;20056;-74
2023/03/11 06:34:10;;;;;;;9.45;2.00;;;1.10;63.00;;;;;;5052734;28;20033;-75
2023/03/11 06:36:36;;;;;;;5.72;1.83;;;1.20;62.50;;;;;;5034703;28;20021;-74
2023/03/11 06:39:03;;;;;;;6.25;1.70;;;1.30;62.00;;;;;;5052604;28;20638;-75
2023/03/11 06:41:28;;;;;;;4.68;1.60;;;1.40;62.00;;;;;;5052338;28;20040;-76
2023/03/11 06:43:58;;;;;;;3.72;1.48;;;1.50;61.60;;;;;;5052375;28;20028;-74
2023/03/11 06:46:24;;;;;;;4.88;1.70;;;1.50;61.20;;;;;;5034491;28;20056;-74
2023/03/11 06:48:52;;;;;;;5.53;1.95;;;1.60;60.30;;;;;;5034471;28;20405;-75
2023/03/11 06:51:18;;;;;;;5.88;2.17;;;1.60;60.10;;;;;;5052400;28;20028;-74
2023/03/11 06:53:48;;;;;;;7.32;2.40;;;1.50;59.60;;;;;;5052568;28;20577;-75
2023/03/11 06:56:14;;;;;;;7.70;2.28;;;1.40;60.70;;;;;;5052310;28;20029;-74
2023/03/11 06:58:41;;;;;;;5.78;1.95;;;1.40;60.00;;;;;;5052542;28;20381;-74
2023/03/11 07:01:16;;;;;;;5.65;2.40;;;1.50;59.70;;;;;;5052262;28;20040;-77
2023/03/11 07:03:42;;;;;;;6.80;2.45;;;1.50;59.90;;;;;;5054656;28;20029;-76
2023/03/11 07:06:12;;;;;;;5.00;1.88;;;1.50;60.90;;;;;;5055809;28;20052;-74
2023/03/11 07:08:38;;;;;;;7.88;1.98;;;1.60;59.30;;;;;;5056150;28;20029;-75
2023/03/11 07:11:06;;;;;;;5.28;1.98;;;1.50;58.90;;;;;;5055988;28;20035;-75
2023/03/11 07:13:33;;;;;;;9.95;4.43;;;1.30;59.90;;;;;;5056128;28;20449;-75
2023/03/11 07:16:04;;;;;;;4.80;1.65;;;1.40;59.80;;;;;;5056038;28;20020;-74
2023/03/11 07:18:29;;;;;;;7.82;1.98;;;1.40;58.70;;;;;;5056042;28;20020;-74
2023/03/11 07:20:55;;;;;;;5.95;1.83;;;1.40;58.50;;;;;;5056023;28;20553;-73
2023/03/11 07:23:21;;;;;;;5.47;1.75;;;1.60;58.00;;;;;;5055932;28;20049;-73
2023/03/11 07:25:46;;;;;;;7.07;2.10;;;1.60;57.70;;;;;;5055736;28;20416;-76
2023/03/11 07:28:12;;;;;;;4.53;1.48;;;1.70;57.30;;;;;;5055741;28;20013;-73
2023/03/11 07:30:38;;;;;;;5.40;1.80;;;1.80;57.20;;;;;;5055361;28;20025;-73
2023/03/11 07:33:04;;;;;;;4.85;1.63;;;2.00;57.20;;;;;;5055601;28;20569;-73
2023/03/11 07:35:30;;;;;;;6.78;1.83;;;2.00;55.90;;;;;;5055514;28;20120;-73
2023/03/11 07:37:56;;;;;;;5.40;1.60;;;2.10;55.80;;;;;;5055457;28;20029;-73
2023/03/11 07:40:21;;;;;;;4.78;1.77;;;2.20;55.70;;;;;;5055425;28;20363;-73
2023/03/11 07:42:47;;;;;;;9.25;2.47;;;2.30;55.60;;;;;;5055316;28;20380;-73
2023/03/11 07:45:13;;;;;;;7.35;1.63;;;2.40;55.80;;;;;;5055073;28;20028;-73
2023/03/11 07:47:38;;;;;;;9.52;2.05;;;2.30;53.80;;;;;;5055328;28;20402;-73
2023/03/11 07:50:04;;;;;;;4.13;1.70;;;2.20;54.00;;;;;;5055026;28;20040;-73
2023/03/11 07:52:31;;;;;;;4.00;1.63;;;2.30;54.30;;;;;;5055023;28;20509;-73
2023/03/11 07:54:57;;;;;;;4.00;1.42;;;2.30;54.10;;;;;;5055311;28;20048;-74
2023/03/11 07:57:22;;;;;;;5.07;1.48;;;2.40;53.90;;;;;;5055100;28;20017;-73
2023/03/11 07:59:48;;;;;;;5.13;1.67;;;2.50;53.60;;;;;;5055334;28;20466;-73
2023/03/11 08:02:13;;;;;;;7.60;1.55;;;2.50;53.50;;;;;;5055098;28;20036;-75
2023/03/11 08:04:39;;;;;;;5.05;1.80;;;2.50;52.60;;;;;;5054740;28;20450;-73
2023/03/11 08:07:05;;;;;;;11.98;1.83;;;2.50;52.80;;;;;;5054971;28;20021;-74
2023/03/11 08:09:30;;;;;;;6.28;1.35;;;2.50;52.80;;;;;;5055041;28;20021;-73
2023/03/11 08:11:56;;;;;;;12.13;2.22;;;2.60;53.60;;;;;;5054722;28;20033;-75
2023/03/11 08:14:22;;;;;;;19.50;3.55;;;2.70;66.70;;;;;;5054701;28;20032;-74
2023/03/11 08:16:47;;;;;;;10.00;2.05;;;3.10;80.70;;;;;;5054647;28;20441;-74
2023/03/11 08:19:13;;;;;;;6.28;2.17;;;3.70;76.20;;;;;;5054303;28;20021;-74
2023/03/11 08:21:39;;;;;;;6.65;1.90;;;4.00;64.00;;;;;;5054616;28;20491;-74
2023/03/11 08:24:05;;;;;;;4.13;1.52;;;4.40;60.80;;;;;;5054409;28;20025;-74
2023/03/11 08:26:31;;;;;;;5.18;1.90;;;4.60;51.60;;;;;;5036223;28;20028;-76
2023/03/11 08:28:58;;;;;;;6.28;1.95;;;4.70;53.80;;;;;;5054427;28;20018;-76
2023/03/11 08:31:27;;;;;;;6.93;2.28;;;4.90;52.20;;;;;;5054310;28;20037;-76
2023/03/11 08:33:55;;;;;;;7.82;2.00;;;5.10;51.80;;;;;;5054506;28;20500;-76
2023/03/11 08:36:21;;;;;;;3.92;1.63;;;5.40;51.10;;;;;;5054270;28;20029;-77
2023/03/11 08:38:46;;;;;;;6.75;1.58;;;5.60;48.80;;;;;;5036318;28;20032;-76
2023/03/11 08:41:12;;;;;;;5.38;1.40;;;5.80;48.90;;;;;;5054186;28;20100;-72
2023/03/11 08:43:38;;;;;;;6.63;1.60;;;5.90;47.10;;;;;;5054350;28;20057;-73
2023/03/11 08:46:07;;;;;;;3.90;1.30;;;5.70;46.30;;;;;;5053956;28;20077;-74
2023/03/11 08:48:35;;;;;;;5.68;1.88;;;5.50;45.60;;;;;;5053498;28;20444;-74
2023/03/11 08:51:01;;;;;;;6.55;1.67;;;5.10;45.20;;;;;;5053908;28;20025;-75
2023/03/11 08:53:27;;;;;;;4.93;1.30;;;4.60;44.60;;;;;;5053877;28;20025;-75
2023/03/11 08:55:53;;;;;;;6.35;1.40;;;4.30;46.00;;;;;;5053999;28;20393;-72
2023/03/11 08:58:19;;;;;;;9.02;1.55;;;4.50;47.70;;;;;;5053937;28;20513;-75
2023/03/11 09:00:45;;;;;;;5.22;1.65;;;4.80;46.20;;;;;;5053881;28;20033;-73
2023/03/11 09:03:12;;;;;;;2.90;1.17;;;4.90;45.00;;;;;;5053968;28;20103;-73
2023/03/11 09:05:37;;;;;;;4.90;1.02;;;5.00;44.50;;;;;;5053743;28;20473;-73
2023/03/11 09:08:03;;;;;;;5.88;1.40;;;5.00;44.90;;;;;;5053666;28;20066;-74
2023/03/11 09:10:29;;;;;;;5.15;1.33;;;4.90;45.60;;;;;;5053739;28;20485;-75
2023/03/11 09:12:54;;;;;;;7.97;1.23;;;5.00;45.50;;;;;;5053662;28;20041;-75
2023/03/11 09:15:21;;;;;;;5.22;1.40;;;5.20;45.70;;;;;;5053880;28;20032;-75
2023/03/11 09:17:46;;;;;;;4.20;1.17;;;5.50;44.30;;;;;;5053810;28;20056;-73
2023/03/11 09:20:13;;;;;;;3.58;1.35;;;5.70;43.00;;;;;;5053696;28;20478;-73
2023/03/11 09:22:39;;;;;;;6.05;1.00;;;5.50;41.60;;;;;;5053431;28;20104;-73
2023/03/11 09:25:05;;;;;;;2.92;1.25;;;5.00;42.90;;;;;;5053181;28;20130;-75
2023/03/11 09:27:30;;;;;;;5.65;1.45;;;4.30;43.70;;;;;;5052997;28;20544;-74
2023/03/11 09:29:56;;;;;;;6.15;1.02;;;4.00;44.60;;;;;;5052926;28;20072;-74
2023/03/11 09:32:21;;;;;;;4.05;0.80;;;3.70;45.50;;;;;;5031352;28;20031;-74
2023/03/11 09:34:47;;;;;;;7.03;1.20;;;3.50;45.40;;;;;;5052143;28;20027;-73
2023/03/11 09:37:12;;;;;;;3.10;0.82;;;3.60;45.10;;;;;;5051802;28;20103;-73
2023/03/11 09:39:38;;;;;;;4.68;1.08;;;3.60;44.90;;;;;;5052540;28;20017;-74
2023/03/11 09:42:14;;;;;;;5.90;1.15;;;4.00;44.90;;;;;;5053589;28;20108;-74
2023/03/11 09:44:44;;;;;;;2.92;0.95;;;4.50;44.50;;;;;;5053488;28;20021;-73
2023/03/11 09:47:21;;;;;;;5.05;1.23;;;5.00;43.50;;;;;;5051929;28;20017;-73
2023/03/11 09:50:05;;;;;;;3.85;1.10;;;5.30;43.10;;;;;;5049679;28;20079;-72
2023/03/11 09:52:52;;;;;;;5.75;1.05;;;5.70;42.50;;;;;;5032029;28;20029;-74
2023/03/11 09:55:39;;;;;;;3.85;1.08;;;5.80;40.00;;;;;;5051352;28;20534;-74
2023/03/11 09:58:31;;;;;;;5.13;1.52;;;5.60;40.80;;;;;;5049748;28;20125;-74
2023/03/11 10:00:56;;;;;;;4.32;0.85;;;5.70;40.80;;;;;;5051025;28;20028;-73
2023/03/11 10:03:35;;;;;;;4.32;1.00;;;6.20;39.90;;;;;;5052192;28;20359;-73
2023/03/11 10:06:12;;;;;;;6.10;1.30;;;6.50;39.40;;;;;;5052492;28;20091;-74
2023/03/11 10:08:46;;;;;;;2.97;1.13;;;6.50;38.90;;;;;;5052545;28;20028;-72
2023/03/11 10:11:27;;;;;;;5.10;1.05;;;6.80;38.50;;;;;;5052304;28;20033;-73
2023/03/11 10:14:25;;;;;;;3.58;0.93;;;7.00;38.10;;;;;;5052477;28;20100;-74
2023/03/11 10:16:57;;;;;;;3.65;0.90;;;7.50;37.90;;;;;;5027632;28;20040;-73
2023/03/11 10:19:40;;;;;;;3.58;1.35;;;8.00;36.70;;;;;;5052037;28;20021;-73
2023/03/11 10:22:29;;;;;;;3.22;1.10;;;8.20;34.20;;;;;;5052106;28;20036;-74
2023/03/11 10:25:13;;;;;;;3.78;0.95;;;8.00;35.90;;;;;;5052227;28;20029;-74
2023/03/11 10:27:47;;;;;;;5.28;0.90;;;7.80;35.40;;;;;;5051786;28;20029;-73
2023/03/11 10:30:16;;;;;;;3.42;1.00;;;7.30;34.60;;;;;;5052287;28;20104;-73
2023/03/11 10:32:50;;;;;;;3.97;0.80;;;7.20;36.50;;;;;;5033867;28;20033;-74
2023/03/11 10:35:35;;;;;;;2.23;1.00;;;7.70;36.10;;;;;;5052234;28;20350;-74
2023/03/11 10:38:09;;;;;;;3.75;1.30;;;8.10;35.50;;;;;;5054091;28;20021;-75
2023/03/11 10:40:38;;;;;;;1.80;0.95;;;8.50;35.10;;;;;;5055700;28;20390;-72
2023/03/11 10:43:36;;;;;;;3.35;0.88;;;8.80;33.20;;;;;;5052514;28;20025;-73
2023/03/11 10:46:13;;;;;;;3.63;1.27;;;9.10;33.10;;;;;;5034115;28;20033;-75
2023/03/11 10:48:38;;;;;;;5.53;1.00;;;9.10;32.10;;;;;;5055066;28;20029;-73
2023/03/11 10:51:16;;;;;;;1.60;0.80;;;8.80;31.90;;;;;;5055031;28;20393;-72
2023/03/11 10:53:47;;;;;;;4.38;0.88;;;8.90;30.30;;;;;;5055090;28;20036;-72
2023/03/11 10:56:23;;;;;;;2.70;1.40;;;8.70;30.90;;;;;;5054911;28;20021;-72
2023/03/11 10:58:49;;;;;;;2.53;1.10;;;8.70;32.10;;;;;;5052873;28;20470;-73
2023/03/11 11:01:16;;;;;;;2.88;1.30;;;9.00;32.50;;;;;;5054963;28;20025;-73
2023/03/11 11:03:44;;;;;;;3.75;1.08;;;9.00;31.50;;;;;;5054742;28;20013;-72
2023/03/11 11:06:35;;;;;;;4.22;2.25;;;8.90;32.00;;;;;;5054506;28;20053;-73
2023/03/11 11:09:19;;;;;;;2.15;1.02;;;8.60;30.00;;;;;;5054075;28;20033;-72
2023/03/11 11:12:12;;;;;;;2.30;0.80;;;8.20;30.80;;;;;;5051922;28;20108;-73
2023/03/11 11:14:49;;;;;;;7.93;3.08;;;8.60;31.90;;;;;;5053949;28;20025;-73
2023/03/11 11:17:29;;;;;;;3.70;1.48;;;8.90;32.10;;;;;;5053779;28;20040;-72
2023/03/11 11:19:56;;;;;;;3.97;1.08;;;8.90;31.80;;;;;;5053443;28;20070;-72
2023/03/11 11:22:24;;;;;;;2.47;0.80;;;9.10;30.80;;;;;;5055246;28;20017;-73
2023/03/11 11:24:53;;;;;;;5.68;1.15;;;9.00;31.00;;;;;;5054720;28;20053;-73
2023/03/11 11:27:25;;;;;;;3.88;1.15;;;8.90;31.00;;;;;;5054422;28;20551;-74
2023/03/11 11:30:13;;;;;;;3.72;1.02;;;9.00;30.70;;;;;;5036747;28;20031;-73
2023/03/11 11:32:39;;;;;;;3.20;1.33;;;9.40;30.70;;;;;;5053702;28;20091;-72
2023/03/11 11:35:15;;;;;;;3.50;0.98;;;9.70;31.60;;;;;;5054308;28;20053;-73
2023/03/11 11:37:45;;;;;;;3.92;1.15;;;9.60;29.90;;;;;;5054119;28;20136;-73
2023/03/11 11:40:14;;;;;;;3.05;0.95;;;9.70;27.20;;;;;;5054180;28;20005;-72
2023/03/11 11:42:44;;;;;;;3.78;1.33;;;9.80;26.10;;;;;;5054153;28;20017;-73
2023/03/11 11:45:26;;;;;;;2.28;0.85;;;9.80;26.90;;;;;;5051839;28;20036;-75
2023/03/11 11:47:56;;;;;;;2.80;1.13;;;9.60;27.40;;;;;;5051575;28;20025;-72
2023/03/11 11:50:36;;;;;;;4.13;0.70;;;9.80;28.10;;;;;;5053533;28;20379;-72
2023/03/11 11:53:14;;;;;;;1.30;0.65;;;10.30;27.80;;;;;;5052877;28;20029;-74
2023/03/11 11:55:49;;;;;;;1.42;1.00;;;10.60;26.30;;;;;;5052554;28;20017;-73
2023/03/11 11:58:14;;;;;;;5.00;1.00;;;11.10;27.70;;;;;;5051799;28;20028;-74
2023/03/11 12:01:03;;;;;;;4.10;0.90;;;11.20;26.10;;;;;;5035838;28;20390;-73
2023/03/11 12:04:03;;;;;;;2.15;0.88;;;11.60;25.20;;;;;;5053909;28;20075;-72
2023/03/11 12:06:36;;;;;;;2.58;1.02;;;11.00;24.00;;;;;;5031189;28;20033;-74
2023/03/11 12:09:23;;;;;;;2.97;0.77;;;10.10;24.80;;;;;;5034458;28;20379;-74
2023/03/11 12:12:01;;;;;;;3.83;1.00;;;10.00;25.40;;;;;;5034764;28;20032;-74
2023/03/11 12:14:34;;;;;;;4.50;0.90;;;10.20;26.60;;;;;;5034867;28;20460;-73
2023/03/11 12:17:01;;;;;;;2.22;0.98;;;10.60;25.50;;;;;;5033542;28;20096;-72
2023/03/11 12:20:06;;;;;;;2.45;0.90;;;11.20;25.40;;;;;;5030773;28;20025;-73
2023/03/11 12:23:07;;;;;;;2.35;1.23;;;11.70;24.20;;;;;;5012195;28;20099;-73
2023/03/11 12:25:44;;;;;;;2.90;1.02;;;11.70;24.80;;;;;;5031907;28;20105;-73
2023/03/11 12:28:36;;;;;;;2.60;0.82;;;11.70;22.20;;;;;;5034375;28;20022;-72
2023/03/11 12:31:07;;;;;;;3.03;1.02;;;11.80;21.20;;;;;;5034308;28;20021;-73
2023/03/11 12:33:36;;;;;;;1.30;0.70;;;11.70;19.60;;;;;;5034582;28;20112;-72
2023/03/11 12:36:03;;;;;;;1.00;0.60;;;11.50;19.90;;;;;;5034122;28;20029;-75
2023/03/11 12:38:33;;;;;;;1.27;0.60;;;11.40;20.40;;;;;;5034342;28;20037;-73
2023/03/11 12:41:01;;;;;;;2.28;0.65;;;11.60;19.90;;;;;;5034098;28;20025;-73
2023/03/11 12:43:32;;;;;;;1.92;0.70;;;11.50;19.00;;;;;;5034090;28;20026;-73
2023/03/11 12:46:06;;;;;;;2.20;0.50;;;11.80;18.30;;;;;;5034867;28;20033;-80
2023/03/11 12:48:48;;;;;;;4.43;1.05;;;11.90;18.40;;;;;;5034314;28;20419;-73
2023/03/11 12:51:40;;;;;;;2.92;1.00;;;12.40;19.10;;;;;;5033940;28;20021;-74
2023/03/11 12:54:31;;;;;;;3.60;0.98;;;12.60;19.80;;;;;;5029333;28;20103;-73
2023/03/11 12:57:02;;;;;;;1.25;0.80;;;12.40;18.30;;;;;;5034298;28;20029;-72
2023/03/11 12:59:52;;;;;;;3.70;0.80;;;12.20;18.20;;;;;;5033907;28;20482;-72
2023/03/11 13:02:42;;;;;;;2.63;0.90;;;12.50;17.90;;;;;;5033559;28;20104;-73
2023/03/11 13:05:26;;;;;;;2.28;1.00;;;12.90;18.70;;;;;;5043287;28;20052;-73